Time;durP1;ratioP1;P1;durP2;ratioP2;P2;SDS_P1;SDS_P2;PMS_P1;PMS_P2;Temp;Humidity;BMP_temperature;BMP_pressure;BME280_temperature;BME280_humidity;BME280_pressure;Samples;Min_cycle;Max_cycle;Signal;HPM_P1;HPM_P2
2022/05/24 00:02:19;;;;;;;9.00;8.15;;;;;;;18.31;77.24;97320.84;5003196;28;20014;-84
2022/05/24 00:04:44;;;;;;;11.40;10.20;;;;;;;18.21;76.80;97296.19;5017360;28;20029;-84
2022/05/24 00:07:10;;;;;;;12.35;11.10;;;;;;;18.23;76.86;97315.56;4976908;28;20034;-85
2022/05/24 00:09:35;;;;;;;13.57;11.93;;;;;;;18.23;76.45;97321.75;5010065;28;20087;-84
2022/05/24 00:12:01;;;;;;;17.52;14.00;;;;;;;18.03;76.95;97324.50;4993652;28;20033;-84
2022/05/24 00:17:10;;;;;;;14.05;12.63;;;;;;;18.08;75.94;97340.50;5002954;28;20073;-85
2022/05/24 00:19:36;;;;;;;19.17;14.25;;;;;;;18.01;75.77;97332.94;5008362;28;20030;-84
2022/05/24 00:22:01;;;;;;;18.70;14.15;;;;;;;17.98;75.91;97347.88;5008936;28;20041;-85
2022/05/24 00:24:27;;;;;;;20.58;15.02;;;;;;;17.91;75.96;97358.44;5010609;28;20100;-85
2022/05/24 00:26:52;;;;;;;17.65;15.63;;;;;;;17.93;75.67;97364.28;5006859;28;20029;-85
2022/05/24 00:29:18;;;;;;;17.70;15.90;;;;;;;17.96;75.41;97360.94;5010786;28;20022;-85
2022/05/24 00:31:43;;;;;;;17.13;15.32;;;;;;;17.83;75.57;97363.91;5010222;28;20030;-85
2022/05/24 00:34:09;;;;;;;16.23;14.52;;;;;;;17.85;75.70;97384.06;4987304;28;20168;-85
2022/05/24 00:36:35;;;;;;;18.70;15.98;;;;;;;17.89;75.03;97376.06;5008890;28;20477;-84
2022/05/24 00:39:00;;;;;;;15.93;14.30;;;;;;;17.76;74.60;97377.16;5003080;28;20109;-84
2022/05/24 00:41:30;;;;;;;16.63;15.02;;;;;;;17.70;74.87;97375.78;5010169;28;21474;-84
2022/05/24 00:43:57;;;;;;;16.38;14.77;;;;;;;17.65;75.26;97392.94;5013999;28;20055;-85
2022/05/24 00:46:32;;;;;;;15.35;13.88;;;;;;;17.56;74.56;97399.53;5021676;28;20030;-84
2022/05/24 00:49:06;;;;;;;16.40;14.73;;;;;;;17.58;74.63;97403.47;5006344;28;20021;-84
2022/05/24 00:51:38;;;;;;;16.10;14.25;;;;;;;17.54;73.98;97401.78;5005593;28;20042;-85
2022/05/24 00:54:04;;;;;;;14.85;13.43;;;;;;;17.38;73.90;97401.53;5011671;28;20053;-85
2022/05/24 00:56:50;;;;;;;16.58;14.85;;;;;;;17.52;74.36;97410.19;5014908;28;20030;-85
2022/05/24 00:59:26;;;;;;;15.75;14.20;;;;;;;17.37;73.91;97418.81;5010158;28;20037;-84
2022/05/24 01:01:51;;;;;;;15.20;13.70;;;;;;;17.36;74.10;97406.47;5011860;28;20025;-85
2022/05/24 01:04:19;;;;;;;19.65;15.10;;;;;;;17.35;73.87;97420.25;5007864;28;20037;-85
2022/05/24 01:06:45;;;;;;;15.98;14.38;;;;;;;17.34;73.70;97432.19;5011806;28;20038;-85
2022/05/24 01:09:17;;;;;;;17.73;15.18;;;;;;;17.30;73.74;97415.84;4991675;28;20034;-85
2022/05/24 01:11:46;;;;;;;16.33;14.60;;;;;;;17.35;74.03;97426.47;5008097;28;20477;-85
2022/05/24 01:14:15;;;;;;;19.33;15.45;;;;;;;17.35;73.58;97412.19;5008335;28;20038;-85
2022/05/24 01:16:41;;;;;;;16.95;15.23;;;;;;;17.28;73.81;97398.44;5003863;28;20390;-85
2022/05/24 01:19:14;;;;;;;17.23;15.50;;;;;;;17.25;73.36;97411.44;5013139;28;20029;-84
2022/05/24 01:21:40;;;;;;;18.50;14.85;;;;;;;17.18;73.85;97419.25;5010085;28;20080;-84
2022/05/24 01:24:21;;;;;;;17.52;15.65;;;;;;;17.23;73.69;97437.94;5009820;28;20037;-85
2022/05/24 01:26:54;;;;;;;17.50;15.63;;;;;;;17.23;73.71;97445.25;5002612;28;20801;-85
2022/05/24 01:29:22;;;;;;;16.67;14.98;;;;;;;17.17;73.63;97441.16;5011409;28;20105;-85
2022/05/24 01:37:18;;;;;;;18.27;16.23;;;;;;;17.17;73.71;97458.13;5006645;28;20071;-84
2022/05/24 01:39:47;;;;;;;18.95;15.30;;;;;;;17.17;73.46;97465.41;5008427;28;20033;-84
2022/05/24 01:42:13;;;;;;;19.85;16.23;;;;;;;17.07;73.68;97455.00;4988508;28;21151;-84
2022/05/24 01:44:50;;;;;;;16.92;15.20;;;;;;;17.08;73.71;97451.19;5009462;28;20038;-85
2022/05/24 01:47:18;;;;;;;18.10;14.55;;;;;;;17.12;73.56;97460.22;5004310;28;20504;-84
2022/05/24 01:49:48;;;;;;;19.05;15.57;;;;;;;17.05;73.82;97463.41;5007073;28;20072;-84
2022/05/24 01:52:32;;;;;;;17.40;15.63;;;;;;;16.97;74.02;97442.66;5008087;28;20618;-84
2022/05/24 01:55:05;;;;;;;20.23;14.48;;;;;;;17.10;73.44;97470.53;5003213;28;20095;-84
2022/05/24 01:57:35;;;;;;;19.25;15.80;;;;;;;17.12;73.86;97471.00;5009806;28;20036;-84
2022/05/24 02:00:05;;;;;;;23.00;16.02;;;;;;;17.09;74.16;97477.84;4988979;28;20121;-84
2022/05/24 02:02:31;;;;;;;17.70;14.52;;;;;;;17.03;73.96;97476.44;5022582;28;20090;-85
2022/05/24 02:04:56;;;;;;;17.52;15.68;;;;;;;17.07;73.59;97469.28;4995835;28;20442;-84
2022/05/24 02:07:23;;;;;;;21.15;15.43;;;;;;;17.14;73.82;97474.16;5008944;28;20120;-85
2022/05/24 02:09:55;;;;;;;18.00;14.85;;;;;;;17.12;73.64;97471.00;5007917;28;20030;-84
2022/05/24 02:12:29;;;;;;;17.73;16.02;;;;;;;16.99;73.69;97456.59;4988421;28;20100;-84
2022/05/24 02:15:02;;;;;;;20.42;16.40;;;;;;;17.02;73.80;97458.66;5006579;28;20026;-84
2022/05/24 02:17:35;;;;;;;17.23;15.48;;;;;;;17.05;74.24;97468.81;4988323;28;20124;-84
2022/05/24 02:20:03;;;;;;;19.23;16.30;;;;;;;17.01;74.17;97485.94;5028385;28;20030;-84
2022/05/24 02:22:29;;;;;;;18.42;15.70;;;;;;;16.99;73.98;97472.78;5007037;28;20080;-84
2022/05/24 02:24:58;;;;;;;18.92;16.90;;;;;;;17.01;73.97;97486.75;5009067;28;20085;-84
2022/05/24 02:27:25;;;;;;;20.25;16.10;;;;;;;17.01;74.13;97478.66;5021368;28;20030;-84
2022/05/24 02:29:50;;;;;;;19.42;16.27;;;;;;;16.93;74.08;97470.59;5005394;28;20040;-84
2022/05/24 02:32:19;;;;;;;19.23;16.80;;;;;;;16.95;74.06;97471.06;5011840;28;20346;-84
2022/05/24 02:34:44;;;;;;;54.00;19.00;;;;;;;17.06;74.24;97491.94;4986278;28;20037;-85
2022/05/24 02:37:10;;;;;;;24.45;18.08;;;;;;;17.04;74.35;97485.28;4993868;28;20487;-84
2022/05/24 02:41:28;;;;;;;20.48;17.35;;;;;;;17.06;73.83;97483.84;5002409;28;20037;-85
2022/05/24 02:42:21;;;;;;;20.17;17.25;;;;;;;16.95;73.73;97469.16;5006969;28;20044;-84
2022/05/24 02:44:46;;;;;;;20.10;17.95;;;;;;;17.01;73.92;97485.94;5007907;28;20034;-84
2022/05/24 02:47:11;;;;;;;21.13;17.60;;;;;;;17.05;73.99;97494.97;5010447;28;20112;-85
2022/05/24 02:49:36;;;;;;;22.10;18.13;;;;;;;17.06;73.53;97493.84;5007522;28;20040;-84
2022/05/24 02:52:02;;;;;;;22.65;18.67;;;;;;;16.97;74.08;97477.69;5008399;28;20486;-84
2022/05/24 02:54:27;;;;;;;20.73;17.33;;;;;;;17.06;74.00;97491.94;4978012;28;20040;-84
2022/05/24 02:56:52;;;;;;;20.02;17.92;;;;;;;17.09;73.81;97496.69;5002497;28;20056;-84
2022/05/24 02:59:18;;;;;;;23.90;19.23;;;;;;;17.05;74.13;97481.50;5009496;28;20041;-84
2022/05/24 03:01:43;;;;;;;22.67;18.98;;;;;;;17.03;73.84;97479.13;5010016;28;20025;-84
2022/05/24 03:04:08;;;;;;;23.25;19.23;;;;;;;16.98;73.92;97471.22;4998532;28;20036;-84
2022/05/24 03:09:33;;;;;;;21.17;18.88;;;;;;;17.04;74.23;97486.09;4978980;28;20088;-84
2022/05/24 03:09:35;;;;;;;22.17;17.67;;;;;;;17.07;73.69;97476.56;5005703;28;20084;-84
2022/05/24 03:14:50;;;;;;;19.90;17.80;;;;;;;17.04;74.36;97463.72;5013657;28;20144;-84
2022/05/24 03:17:16;;;;;;;23.35;18.20;;;;;;;17.02;74.50;97476.75;4988740;28;20034;-85
2022/05/24 03:19:42;;;;;;;20.05;17.42;;;;;;;16.94;74.48;97462.19;5009698;28;20041;-84
2022/05/24 03:22:09;;;;;;;20.67;17.55;;;;;;;17.01;74.24;97467.88;4988565;28;20121;-84
2022/05/24 03:24:37;;;;;;;19.02;16.73;;;;;;;17.00;74.28;97484.34;4994291;28;20040;-84
2022/05/24 03:27:11;;;;;;;19.08;16.85;;;;;;;16.91;74.68;97479.00;5008851;28;20037;-85
2022/05/24 03:29:38;;;;;;;21.83;16.50;;;;;;;16.89;74.28;97480.44;5010839;28;20120;-84
2022/05/24 03:32:05;;;;;;;23.70;16.95;;;;;;;16.88;74.53;97476.97;5008884;28;20434;-84
2022/05/24 03:34:30;;;;;;;19.02;16.88;;;;;;;16.87;74.34;97474.56;4994323;28;20045;-85
2022/05/24 03:36:55;;;;;;;19.42;15.80;;;;;;;16.79;74.46;97457.34;5008380;28;20029;-85
2022/05/24 03:39:21;;;;;;;18.73;15.95;;;;;;;16.82;74.41;97472.84;4992978;28;20478;-85
2022/05/24 03:41:46;;;;;;;19.38;15.70;;;;;;;16.90;74.75;97474.75;4978692;28;20022;-84
2022/05/24 03:44:12;;;;;;;17.42;15.52;;;;;;;16.84;74.50;97478.69;5012906;28;20490;-84
2022/05/24 03:46:38;;;;;;;17.55;15.18;;;;;;;16.78;74.67;97471.09;4994929;28;20041;-84
2022/05/24 03:49:04;;;;;;;17.30;14.48;;;;;;;16.76;74.66;97467.94;5011234;28;20045;-85
2022/05/24 03:51:29;;;;;;;17.42;14.85;;;;;;;16.78;74.39;97479.19;5009726;28;20114;-85
2022/05/24 03:53:54;;;;;;;19.05;14.75;;;;;;;16.79;75.12;97483.50;5007640;28;20052;-84
2022/05/24 03:56:20;;;;;;;18.65;13.77;;;;;;;16.80;74.95;97493.13;5012782;28;20044;-84
2022/05/24 03:58:45;;;;;;;18.02;14.70;;;;;;;16.80;74.63;97482.34;5015469;28;20038;-85
2022/05/24 04:01:10;;;;;;;18.85;14.75;;;;;;;16.80;74.64;97483.16;4998087;28;20064;-84
2022/05/24 04:03:36;;;;;;;18.38;14.10;;;;;;;16.83;74.49;97474.44;5009485;28;20049;-85
2022/05/24 04:06:01;;;;;;;20.52;15.18;;;;;;;16.83;74.95;97484.41;5009687;28;20397;-85
2022/05/24 04:08:29;;;;;;;18.75;15.40;;;;;;;16.80;74.94;97485.84;5005049;28;20054;-84
2022/05/24 04:11:13;;;;;;;18.55;14.57;;;;;;;16.80;75.05;97485.06;4975863;28;20496;-84
2022/05/24 04:13:41;;;;;;;17.55;13.18;;;;;;;16.85;74.56;97492.97;5009236;28;20026;-85
2022/05/24 04:16:07;;;;;;;19.67;14.40;;;;;;;16.71;75.01;97478.91;5009753;28;20080;-85
2022/05/24 04:18:34;;;;;;;17.35;14.70;;;;;;;16.77;74.65;97486.50;5004011;28;20073;-86
2022/05/24 04:20:59;;;;;;;20.13;14.05;;;;;;;16.77;74.68;97485.72;5009508;28;20025;-85
2022/05/24 04:23:25;;;;;;;16.70;13.90;;;;;;;16.83;75.02;97487.91;4975358;28;20035;-85
2022/05/24 04:25:52;;;;;;;20.70;14.93;;;;;;;16.87;74.80;97494.25;5007702;28;20041;-84
2022/05/24 04:28:18;;;;;;;16.25;14.63;;;;;;;16.86;74.62;97499.97;4998732;28;20025;-84
2022/05/24 04:30:46;;;;;;;21.35;14.98;;;;;;;16.77;74.70;97485.72;4990582;28;20042;-85
2022/05/24 04:33:11;;;;;;;15.65;14.05;;;;;;;16.92;74.42;97499.47;5005168;28;20405;-84
2022/05/24 04:35:37;;;;;;;16.17;14.13;;;;;;;16.88;74.10;97478.88;5005563;28;20121;-85
2022/05/24 04:38:02;;;;;;;18.50;15.35;;;;;;;16.92;74.64;97491.38;4975275;28;20063;-85
2022/05/24 04:43:11;;;;;;;17.38;13.93;;;;;;;16.94;74.62;97507.22;5009490;28;20060;-85
2022/05/24 04:45:37;;;;;;;18.83;14.93;;;;;;;16.93;74.62;97505.63;4992588;28;20026;-85
2022/05/24 04:48:03;;;;;;;20.27;15.00;;;;;;;16.85;74.76;97488.38;5005644;28;20025;-85
2022/05/24 04:50:28;;;;;;;17.38;14.82;;;;;;;16.91;74.69;97507.84;4992943;28;20044;-85
2022/05/24 04:52:53;;;;;;;16.65;14.68;;;;;;;16.86;74.64;97491.88;4979563;28;20033;-85
2022/05/24 04:55:19;;;;;;;18.45;14.15;;;;;;;16.92;74.22;97509.44;4990871;28;20044;-85
2022/05/24 04:57:44;;;;;;;17.10;14.07;;;;;;;16.92;74.49;97512.16;4988388;28;20030;-84
2022/05/24 05:00:14;;;;;;;18.58;14.02;;;;;;;16.90;73.76;97511.69;5014172;28;20076;-84
2022/05/24 05:02:41;;;;;;;18.15;14.32;;;;;;;16.94;74.07;97523.38;5015665;28;20092;-84
2022/05/24 05:05:07;;;;;;;19.80;14.10;;;;;;;16.89;74.47;97527.06;5011310;28;20107;-84
2022/05/24 05:07:33;;;;;;;20.73;13.60;;;;;;;16.90;74.45;97530.53;5003176;28;20033;-84
2022/05/24 05:09:58;;;;;;;15.98;13.93;;;;;;;16.94;73.93;97532.28;5004220;28;20038;-84
2022/05/24 05:12:26;;;;;;;15.02;12.85;;;;;;;16.84;74.01;97521.81;5010571;28;20095;-84
2022/05/24 05:14:52;;;;;;;16.77;13.23;;;;;;;16.91;74.26;97534.81;5009201;28;20096;-84
2022/05/24 05:17:18;;;;;;;16.15;13.90;;;;;;;16.91;73.93;97540.19;5000833;28;20394;-85
2022/05/24 05:19:45;;;;;;;14.90;13.25;;;;;;;16.92;74.21;97531.00;5014003;28;20041;-84
2022/05/24 05:22:10;;;;;;;15.77;12.82;;;;;;;16.82;73.91;97534.81;5011205;28;20295;-84
2022/05/24 05:24:35;;;;;;;15.13;13.45;;;;;;;16.84;74.28;97546.06;4989506;28;20381;-83
2022/05/24 05:27:04;;;;;;;17.25;14.13;;;;;;;16.89;74.38;97553.19;5005877;28;20132;-84
2022/05/24 05:32:20;;;;;;;14.95;13.07;;;;;;;16.90;73.76;97546.72;5008946;28;20796;-84
2022/05/24 05:34:46;;;;;;;14.65;13.07;;;;;;;16.84;74.01;97532.59;5000108;28;20095;-84
2022/05/24 05:37:11;;;;;;;14.77;12.90;;;;;;;16.87;73.78;97534.66;5000312;28;20026;-83
2022/05/24 05:39:37;;;;;;;15.63;12.90;;;;;;;16.86;73.81;97537.69;4989030;28;20125;-83
2022/05/24 05:42:03;;;;;;;15.70;12.77;;;;;;;16.84;73.70;97531.84;4991165;28;20516;-83
2022/05/24 05:44:29;;;;;;;14.18;12.68;;;;;;;16.90;73.33;97522.47;5004545;28;20212;-83
2022/05/24 05:46:55;;;;;;;14.00;12.57;;;;;;;17.00;73.21;97527.50;5002068;28;20042;-83
2022/05/24 05:49:20;;;;;;;15.75;13.23;;;;;;;17.04;73.70;97537.31;5012329;28;20042;-83
2022/05/24 05:51:46;;;;;;;14.90;13.40;;;;;;;17.03;73.06;97543.84;4992914;28;20034;-83
2022/05/24 05:54:11;;;;;;;15.50;12.88;;;;;;;17.11;72.75;97543.00;5013837;28;20056;-83
2022/05/24 05:56:36;;;;;;;14.60;11.82;;;;;;;17.12;72.82;97539.19;4990177;28;20042;-84
2022/05/24 05:59:02;;;;;;;13.82;11.32;;;;;;;17.13;72.92;97537.28;5010471;28;20029;-83
2022/05/24 06:01:31;;;;;;;13.48;12.10;;;;;;;17.19;72.71;97541.38;5004465;28;20030;-84
2022/05/24 06:04:00;;;;;;;17.58;12.70;;;;;;;17.28;72.74;97554.84;4988490;28;20029;-84
2022/05/24 06:06:29;;;;;;;13.65;11.45;;;;;;;17.22;72.86;97546.13;5015669;28;20022;-84
2022/05/24 06:08:54;;;;;;;13.63;10.82;;;;;;;17.27;72.54;97539.78;5004380;28;20135;-84
2022/05/24 06:11:19;;;;;;;13.38;11.00;;;;;;;17.30;72.28;97544.53;4976521;28;20053;-83
2022/05/24 06:13:45;;;;;;;13.98;11.30;;;;;;;17.29;72.83;97546.44;5008811;28;20050;-84
2022/05/24 06:16:10;;;;;;;12.50;10.75;;;;;;;17.38;72.26;97573.38;5008742;28;20060;-83
2022/05/24 06:18:37;;;;;;;14.40;12.40;;;;;;;17.37;73.05;97571.78;4996448;28;20496;-84
2022/05/24 06:21:03;;;;;;;13.07;11.20;;;;;;;17.30;72.95;97574.97;5008376;28;20553;-84
2022/05/24 06:23:29;;;;;;;12.85;10.95;;;;;;;17.41;72.00;97588.94;5010718;28;20045;-84
2022/05/24 06:25:54;;;;;;;13.32;12.02;;;;;;;17.38;73.28;97584.16;4987357;28;20401;-83
2022/05/24 06:28:20;;;;;;;13.50;10.57;;;;;;;17.34;72.33;97588.63;5017103;28;20053;-83
2022/05/24 06:30:45;;;;;;;14.73;11.32;;;;;;;17.37;72.06;97594.16;5001970;28;20049;-82
2022/05/24 06:33:11;;;;;;;11.93;10.70;;;;;;;17.39;72.27;97589.22;4989890;28;20441;-82
2022/05/24 06:35:39;;;;;;;12.02;10.60;;;;;;;17.45;72.41;97596.03;5001727;28;20029;-83
2022/05/24 06:38:05;;;;;;;14.38;11.02;;;;;;;17.38;72.99;97594.94;5006936;28;20489;-84
2022/05/24 06:40:31;;;;;;;16.05;10.30;;;;;;;17.40;72.69;97598.13;4991399;28;20112;-83
2022/05/24 06:42:57;;;;;;;13.25;10.77;;;;;;;17.41;72.48;97597.78;4996214;28;20298;-83
2022/05/24 06:45:23;;;;;;;11.70;9.60;;;;;;;17.36;72.80;97584.50;4996633;28;21033;-83
2022/05/24 06:47:48;;;;;;;12.73;9.43;;;;;;;17.34;72.58;97577.84;4982033;28;20173;-83
2022/05/24 06:50:14;;;;;;;12.45;9.93;;;;;;;17.40;72.13;97585.44;5013484;28;20072;-82
2022/05/24 06:52:40;;;;;;;12.75;9.82;;;;;;;17.51;72.58;97584.00;5006617;28;20030;-83
2022/05/24 06:55:07;;;;;;;11.38;8.98;;;;;;;17.45;72.45;97585.22;5005920;28;20046;-81
2022/05/24 06:57:32;;;;;;;12.30;10.07;;;;;;;17.50;72.97;97579.69;4999500;28;20044;-83
2022/05/24 07:02:42;;;;;;;19.73;9.88;;;;;;;17.50;71.84;97590.50;5011490;28;20122;-83
2022/05/24 07:05:13;;;;;;;12.82;10.25;;;;;;;17.50;71.82;97600.44;5012841;28;20688;-83
2022/05/24 07:07:40;;;;;;;12.93;9.57;;;;;;;17.41;71.46;97597.78;5025705;28;20062;-83
2022/05/24 07:10:08;;;;;;;13.07;10.07;;;;;;;17.33;72.18;97605.91;5001940;28;20040;-84
2022/05/24 07:12:34;;;;;;;14.52;9.75;;;;;;;17.37;72.04;97604.94;4976440;28;20033;-84
2022/05/24 07:14:59;;;;;;;13.15;10.15;;;;;;;17.37;72.15;97593.34;5009816;28;20041;-84
2022/05/24 07:17:25;;;;;;;10.82;9.68;;;;;;;17.48;71.49;97602.69;5013619;28;20037;-83
2022/05/24 07:19:51;;;;;;;12.07;8.45;;;;;;;17.49;71.71;97593.47;5016387;28;20034;-83
2022/05/24 07:22:19;;;;;;;12.30;9.13;;;;;;;17.56;71.23;97599.97;5012868;28;20117;-83
2022/05/24 07:24:48;;;;;;;12.15;8.68;;;;;;;17.57;71.14;97601.56;5013915;28;20030;-83
2022/05/24 07:27:14;;;;;;;9.30;8.23;;;;;;;17.57;71.10;97601.56;5010074;28;20057;-83
2022/05/24 07:29:40;;;;;;;8.50;7.65;;;;;;;17.67;70.76;97612.00;5011226;28;20480;-83
2022/05/24 07:32:06;;;;;;;8.80;7.82;;;;;;;17.63;70.78;97602.97;5019196;28;20036;-83
2022/05/24 07:34:32;;;;;;;9.43;7.30;;;;;;;17.72;71.21;97614.53;5012794;28;20042;-83
2022/05/24 07:37:00;;;;;;;10.88;8.70;;;;;;;17.73;70.72;97613.41;5012678;28;20030;-83
2022/05/24 07:39:26;;;;;;;9.35;6.80;;;;;;;17.63;71.18;97594.06;5010359;28;20092;-83
2022/05/24 07:47:19;;;;;;;9.27;8.38;;;;;;;17.76;71.20;97617.34;5009772;28;20133;-83
2022/05/24 07:49:44;;;;;;;8.63;7.70;;;;;;;17.77;71.93;97622.44;5024326;28;20038;-83
2022/05/24 07:52:10;;;;;;;10.98;7.35;;;;;;;17.79;72.33;97632.91;5012982;28;20076;-83
2022/05/24 07:54:36;;;;;;;8.00;6.85;;;;;;;17.78;72.56;97631.31;5011930;28;20121;-82
2022/05/24 07:57:03;;;;;;;8.27;6.00;;;;;;;17.66;71.98;97629.31;5025424;28;20022;-82
2022/05/24 07:59:28;;;;;;;7.90;6.10;;;;;;;17.65;72.53;97637.72;5024437;28;20048;-82
2022/05/24 08:01:54;;;;;;;6.57;5.97;;;;;;;17.66;72.89;97648.22;5009712;28;20033;-81
2022/05/24 08:04:19;;;;;;;7.07;4.88;;;;;;;17.58;73.45;97670.59;5010786;28;20105;-82
2022/05/24 08:06:45;;;;;;;6.85;4.78;;;;;;;17.54;73.58;97733.66;5012214;28;20536;-84
2022/05/24 08:09:11;;;;;;;8.88;5.00;;;;;;;17.44;74.59;97721.25;5010203;28;20551;-83
2022/05/24 08:11:36;;;;;;;7.97;4.25;;;;;;;17.19;74.55;97692.38;5010080;28;20053;-84
2022/05/24 08:14:03;;;;;;;5.07;3.47;;;;;;;17.24;74.26;97713.81;5010860;28;20383;-84
2022/05/24 08:16:30;;;;;;;8.30;3.17;;;;;;;17.11;73.97;97709.38;5021200;28;20088;-83
2022/05/24 08:18:58;;;;;;;4.18;2.72;;;;;;;17.13;73.07;97717.94;5024780;28;20279;-84
2022/05/24 08:21:26;;;;;;;7.18;2.33;;;;;;;17.13;73.41;97718.75;5009589;28;20045;-84
2022/05/24 08:23:52;;;;;;;6.20;2.38;;;;;;;17.10;73.28;97721.28;5009382;28;20026;-84
2022/05/24 08:26:17;;;;;;;3.10;1.98;;;;;;;16.99;73.70;97706.53;5024296;28;20022;-84
2022/05/24 08:28:43;;;;;;;5.15;2.25;;;;;;;17.06;72.96;97718.41;5010193;28;20037;-84
2022/05/24 08:31:10;;;;;;;3.05;1.92;;;;;;;17.02;72.70;97720.16;5007728;28;20025;-83
2022/05/24 08:33:36;;;;;;;3.47;2.17;;;;;;;16.98;72.66;97707.63;4993434;28;20650;-84
2022/05/24 08:36:02;;;;;;;4.53;1.85;;;;;;;17.05;72.81;97721.44;5011523;28;20032;-84
2022/05/24 08:38:28;;;;;;;2.30;1.58;;;;;;;17.05;72.34;97734.91;5008091;28;20038;-84
2022/05/24 08:41:00;;;;;;;5.28;1.63;;;;;;;17.08;72.65;97745.84;5009595;28;20041;-84
2022/05/24 08:43:41;;;;;;;3.13;1.55;;;;;;;17.10;71.77;97738.25;5013595;28;20094;-84
2022/05/24 08:49:07;;;;;;;5.70;1.75;;;;;;;16.89;71.09;97725.69;5007417;28;20398;-84
2022/05/24 08:51:38;;;;;;;2.33;1.63;;;;;;;17.00;70.95;97751.25;5011860;28;20170;-84
2022/05/24 08:54:14;;;;;;;2.63;1.52;;;;;;;16.98;71.02;97738.09;5009588;28;20040;-84
2022/05/24 08:56:43;;;;;;;;;;;;;;;17.00;71.37;97738.56;5001693;28;20030;-84
2022/05/24 08:59:16;;;;;;;1.90;1.52;;;;;;;17.07;71.00;97735.41;5006205;28;19924;-83
2022/05/24 09:01:44;;;;;;;3.33;1.60;;;;;;;17.02;71.36;97762.50;5009051;28;20028;-84
2022/05/24 09:04:12;;;;;;;2.17;1.58;;;;;;;17.07;71.78;97786.63;4993730;28;20077;-84
2022/05/24 09:06:55;;;;;;;1.70;1.58;;;;;;;17.11;71.28;97798.34;5008245;28;20465;-83
2022/05/24 09:09:34;;;;;;;2.20;1.55;;;;;;;17.17;70.77;97799.78;5004687;28;20025;-84
2022/05/24 09:12:26;;;;;;;1.85;1.67;;;;;;;17.22;70.75;97786.16;5009550;28;20117;-84
2022/05/24 09:15:15;;;;;;;2.05;1.55;;;;;;;17.27;71.02;97788.69;5009073;28;20030;-84
2022/05/24 09:18:12;;;;;;;5.25;2.03;;;;;;;17.29;71.71;97789.19;5022945;28;20037;-84
2022/05/24 09:20:41;;;;;;;9.38;2.20;;;;;;;17.25;71.49;97782.84;5005545;28;20025;-84
2022/05/24 09:23:20;;;;;;;5.25;2.08;;;;;;;17.35;70.75;97789.78;5005574;28;20037;-84
2022/05/24 09:26:06;;;;;;;4.28;2.10;;;;;;;17.40;71.03;97790.44;4990180;28;20054;-84
2022/05/24 09:28:55;;;;;;;2.25;1.50;;;;;;;17.54;70.83;97787.63;5022965;28;20093;-84
2022/05/24 09:31:40;;;;;;;3.20;1.70;;;;;;;17.56;70.52;97790.78;5010155;28;20022;-83
2022/05/24 09:34:22;;;;;;;2.88;2.05;;;;;;;17.69;69.51;97797.91;5006660;28;20049;-83
2022/05/24 09:36:55;;;;;;;3.17;1.70;;;;;;;17.78;69.53;97810.25;5008984;28;20030;-84
2022/05/24 09:39:30;;;;;;;3.55;1.92;;;;;;;17.81;69.26;97815.03;5006503;28;20545;-84
2022/05/24 09:42:02;;;;;;;1.90;1.63;;;;;;;17.90;69.05;97821.22;5006272;28;20026;-84
2022/05/24 09:44:50;;;;;;;2.20;1.98;;;;;;;18.06;69.27;97828.81;5009451;28;20136;-83
2022/05/24 09:47:23;;;;;;;4.80;2.08;;;;;;;17.98;68.62;97825.00;5005266;28;20030;-83
2022/05/24 09:49:49;;;;;;;3.70;2.42;;;;;;;18.10;68.70;97849.44;5009578;28;20073;-83
2022/05/24 09:52:16;;;;;;;2.88;1.70;;;;;;;18.09;67.90;97841.66;5005882;28;20041;-84
2022/05/24 09:54:57;;;;;;;2.58;2.10;;;;;;;18.08;68.13;97859.00;5012656;28;20141;-84
2022/05/24 09:57:32;;;;;;;2.60;1.98;;;;;;;18.05;68.01;97865.81;5004047;28;20061;-83
2022/05/24 10:00:06;;;;;;;2.57;1.80;;;;;;;18.02;67.77;97863.75;5009519;28;20457;-84
2022/05/24 10:02:32;;;;;;;2.45;1.90;;;;;;;18.00;67.33;97860.56;5023830;28;20022;-83
2022/05/24 10:04:59;;;;;;;3.13;2.10;;;;;;;17.94;67.23;97848.38;5006154;28;20117;-84
2022/05/24 10:07:31;;;;;;;3.08;2.20;;;;;;;17.88;67.01;97836.94;5005460;28;20026;-84
2022/05/24 10:10:12;;;;;;;1.98;1.80;;;;;;;17.97;66.77;97859.31;5007984;28;20053;-84
2022/05/24 10:12:52;;;;;;;3.22;1.92;;;;;;;18.02;66.69;97852.94;5003231;28;20150;-84
2022/05/24 10:15:43;;;;;;;1.23;1.13;;;;;;;18.07;66.47;97854.69;5007709;28;20156;-84
2022/05/24 10:18:30;;;;;;;4.53;1.70;;;;;;;18.15;66.58;97859.28;5006078;28;20393;-84
2022/05/24 10:21:14;;;;;;;2.53;1.90;;;;;;;18.17;66.48;97855.16;5008282;28;20030;-84
2022/05/24 10:24:04;;;;;;;2.47;1.40;;;;;;;18.23;66.46;97861.19;5005799;28;20029;-84
2022/05/24 10:26:42;;;;;;;2.70;2.30;;;;;;;18.22;66.25;97859.56;5010064;28;20485;-83
2022/05/24 10:29:20;;;;;;;1.52;1.40;;;;;;;18.24;66.42;97854.66;5014649;28;20049;-83
2022/05/24 10:32:02;;;;;;;1.80;1.55;;;;;;;18.29;66.09;97871.50;5013051;28;20648;-84
2022/05/24 10:38:17;;;;;;;1.55;1.45;;;;;;;18.43;65.06;97866.69;5012822;28;20096;-84
2022/05/24 10:40:55;;;;;;;2.85;1.88;;;;;;;18.55;65.15;97869.53;5023766;28;20505;-84
2022/05/24 10:43:46;;;;;;;3.97;1.20;;;;;;;18.51;64.81;97863.19;5012840;28;20481;-84
2022/05/24 10:46:15;;;;;;;1.33;1.23;;;;;;;18.67;64.52;97885.06;5012069;28;20052;-84
2022/05/24 10:48:49;;;;;;;2.55;1.55;;;;;;;18.77;65.16;97898.22;5010061;28;20021;-83
2022/05/24 10:51:23;;;;;;;1.30;1.05;;;;;;;18.77;64.19;97881.19;5010548;28;20400;-83
2022/05/24 10:53:54;;;;;;;2.88;1.40;;;;;;;18.93;63.60;97883.06;5023032;28;20073;-84
2022/05/24 10:56:29;;;;;;;3.28;1.48;;;;;;;19.04;63.68;97886.19;5011634;28;20358;-84
2022/05/24 10:59:11;;;;;;;3.57;2.00;;;;;;;19.03;64.05;97871.84;5014448;28;20225;-83
2022/05/24 11:01:43;;;;;;;1.20;1.10;;;;;;;19.09;64.33;97886.75;5022773;28;20271;-84
2022/05/24 11:04:16;;;;;;;2.85;1.50;;;;;;;19.03;63.47;97879.97;5011216;28;20079;-84
2022/05/24 11:06:54;;;;;;;3.13;1.17;;;;;;;19.04;63.10;97895.09;5009929;28;20176;-84
2022/05/24 11:09:22;;;;;;;2.05;1.40;;;;;;;18.86;62.88;97884.66;5012280;28;20030;-83
2022/05/24 11:12:03;;;;;;;1.50;1.20;;;;;;;18.88;62.78;97904.84;4995468;28;20026;-83
2022/05/24 11:14:45;;;;;;;13.13;1.90;;;;;;;18.83;63.58;97904.25;5010468;28;20057;-83
2022/05/24 11:17:13;;;;;;;2.47;1.58;;;;;;;18.74;63.15;97898.84;5011578;28;20034;-83
2022/05/24 11:19:44;;;;;;;1.25;1.08;;;;;;;18.77;63.63;97898.22;5010781;28;20115;-83
2022/05/24 11:22:15;;;;;;;1.58;1.33;;;;;;;18.83;63.46;97909.66;5025359;28;20018;-83
2022/05/24 11:24:52;;;;;;;7.55;1.35;;;;;;;18.96;62.85;97897.84;5011414;28;20116;-83
2022/05/24 11:27:26;;;;;;;9.18;1.10;;;;;;;19.14;62.74;97910.13;5007953;28;20112;-82
2022/05/24 11:29:56;;;;;;;1.80;1.45;;;;;;;19.39;62.55;97907.34;5012247;28;20026;-83
2022/05/24 11:32:54;;;;;;;2.58;1.20;;;;;;;19.63;62.11;97908.59;5028184;28;20393;-83
2022/05/24 11:35:19;;;;;;;2.55;1.52;;;;;;;19.67;62.03;97912.22;5025038;28;20045;-83
2022/05/24 11:37:51;;;;;;;1.90;1.10;;;;;;;19.62;61.64;97915.91;5009705;28;20025;-83
2022/05/24 11:40:54;;;;;;;3.72;1.40;;;;;;;19.53;60.88;97919.81;5028721;28;20491;-83
2022/05/24 11:43:35;;;;;;;1.10;1.00;;;;;;;19.46;60.46;97928.47;5010140;28;20026;-83
2022/05/24 11:46:06;;;;;;;0.80;0.80;;;;;;;19.37;60.81;97916.91;5009689;28;20084;-83
2022/05/24 11:48:43;;;;;;;1.30;1.20;;;;;;;19.24;60.63;97917.91;5022687;28;20397;-83
2022/05/24 11:51:45;;;;;;;1.30;1.20;;;;;;;19.20;60.45;97927.75;5011103;28;20061;-84
2022/05/24 11:54:18;;;;;;;1.60;1.20;;;;;;;19.12;60.75;97921.28;5006290;28;20041;-83
2022/05/24 11:57:01;;;;;;;1.35;1.15;;;;;;;19.07;61.05;97929.59;5006862;28;20164;-84
2022/05/24 11:59:39;;;;;;;2.28;0.85;;;;;;;19.07;60.53;97928.78;5008696;28;20409;-83
2022/05/24 12:02:34;;;;;;;1.00;1.00;;;;;;;19.11;60.99;97938.63;5006630;28;20405;-82
2022/05/24 12:07:59;;;;;;;0.82;0.80;;;;;;;19.11;59.14;97935.16;5010747;28;20129;-83
2022/05/24 12:10:35;;;;;;;1.70;1.10;;;;;;;19.10;59.31;97942.47;5011606;28;20193;-83
2022/05/24 12:13:03;;;;;;;1.73;1.20;;;;;;;19.15;59.27;97936.09;5009561;28;20026;-83